Time;durP1;ratioP1;P1;durP2;ratioP2;P2;SDS_P1;SDS_P2;PMS_P1;PMS_P2;Temp;Humidity;BMP_temperature;BMP_pressure;BME280_temperature;BME280_humidity;BME280_pressure;Samples;Min_cycle;Max_cycle;Signal;HPM_P1;HPM_P2
2022/10/12 00:01:22;;;;;;;12.18;4.45;;;16.00;64.60;;;;;;5087717;28;20029;-76
2022/10/12 00:03:48;;;;;;;8.85;4.50;;;15.90;64.50;;;;;;5068744;28;20368;-77
2022/10/12 00:06:19;;;;;;;8.85;4.20;;;15.90;64.50;;;;;;5075307;28;20032;-76
2022/10/12 00:08:46;;;;;;;7.75;4.43;;;16.00;64.60;;;;;;5070496;28;20104;-73
2022/10/12 00:11:16;;;;;;;8.45;5.07;;;16.00;64.40;;;;;;5072122;28;20027;-75
2022/10/12 00:13:42;;;;;;;8.52;4.70;;;15.90;64.50;;;;;;5072003;28;20024;-76
2022/10/12 00:16:10;;;;;;;7.97;4.90;;;15.90;64.50;;;;;;5068195;28;20144;-70
2022/10/12 00:18:36;;;;;;;13.25;5.30;;;15.90;64.50;;;;;;5069601;28;20025;-73
2022/10/12 00:21:03;;;;;;;10.00;4.75;;;15.90;64.50;;;;;;5057114;28;20033;-76
2022/10/12 00:23:30;;;;;;;8.25;4.50;;;15.90;64.50;;;;;;5050902;28;20025;-76
2022/10/12 00:25:59;;;;;;;11.13;4.25;;;15.80;64.40;;;;;;5052186;28;20017;-74
2022/10/12 00:28:25;;;;;;;7.85;5.13;;;15.90;64.50;;;;;;5052075;28;20474;-73
2022/10/12 00:30:51;;;;;;;14.60;4.95;;;15.80;64.60;;;;;;5052014;28;20036;-75
2022/10/12 00:33:17;;;;;;;6.20;4.30;;;15.80;64.70;;;;;;5056528;28;20040;-71
2022/10/12 00:35:42;;;;;;;8.02;4.40;;;15.80;64.60;;;;;;5090974;28;20503;-73
2022/10/12 00:38:08;;;;;;;13.80;3.97;;;15.80;64.60;;;;;;5075545;28;20025;-73
2022/10/12 00:40:34;;;;;;;12.57;5.22;;;15.80;64.70;;;;;;5069781;28;20036;-75
2022/10/12 00:43:00;;;;;;;27.13;5.80;;;15.80;64.70;;;;;;5075581;28;20381;-75
2022/10/12 00:45:26;;;;;;;8.90;4.63;;;15.80;64.80;;;;;;5060607;28;20042;-73
2022/10/12 00:47:57;;;;;;;11.02;4.55;;;15.80;64.80;;;;;;5060991;28;20033;-74
2022/10/12 00:50:34;;;;;;;9.18;4.72;;;15.80;64.90;;;;;;5075539;28;20021;-71
2022/10/12 00:53:13;;;;;;;5.13;3.72;;;15.70;64.80;;;;;;5075090;28;20058;-72
2022/10/12 00:55:46;;;;;;;7.47;3.78;;;15.70;64.70;;;;;;5075336;28;20150;-73
2022/10/12 00:58:12;;;;;;;8.68;4.57;;;15.70;64.70;;;;;;5073684;28;20028;-76
2022/10/12 01:00:39;;;;;;;8.02;4.70;;;15.70;64.60;;;;;;5073667;28;20134;-76
2022/10/12 01:03:08;;;;;;;8.68;4.10;;;15.70;64.70;;;;;;5078609;28;20668;-74
2022/10/12 01:05:34;;;;;;;10.35;4.43;;;15.70;64.70;;;;;;5095312;28;20032;-75
2022/10/12 01:08:01;;;;;;;5.32;3.67;;;15.70;64.60;;;;;;5078512;28;20035;-72
2022/10/12 01:10:27;;;;;;;5.43;3.60;;;15.60;64.60;;;;;;5075021;28;20463;-72
2022/10/12 01:12:53;;;;;;;8.02;3.92;;;15.60;64.60;;;;;;5075035;28;20094;-74
2022/10/12 01:15:22;;;;;;;6.07;4.38;;;15.50;64.60;;;;;;5075012;28;20029;-72
2022/10/12 01:18:07;;;;;;;13.13;4.28;;;15.50;64.70;;;;;;5074977;28;20027;-76
2022/10/12 01:20:35;;;;;;;6.03;4.45;;;15.50;64.80;;;;;;5074823;28;20025;-76
2022/10/12 01:23:16;;;;;;;12.23;5.28;;;15.50;64.70;;;;;;5074631;28;20099;-77
2022/10/12 01:26:18;;;;;;;7.45;4.50;;;15.40;64.90;;;;;;5074742;28;20565;-74
2022/10/12 01:28:57;;;;;;;10.13;4.78;;;15.40;65.00;;;;;;5060393;28;20039;-78
2022/10/12 01:31:30;;;;;;;9.13;4.00;;;15.40;65.00;;;;;;5067566;28;20028;-72
2022/10/12 01:34:22;;;;;;;6.50;4.25;;;15.40;65.00;;;;;;5074622;28;20052;-75
2022/10/12 01:37:06;;;;;;;7.45;4.05;;;15.30;65.10;;;;;;5061994;28;20037;-76
2022/10/12 01:39:40;;;;;;;5.80;4.03;;;15.30;65.20;;;;;;5074425;28;20025;-74
2022/10/12 01:42:15;;;;;;;9.68;4.60;;;15.30;65.20;;;;;;5062757;28;20112;-71
2022/10/12 01:44:40;;;;;;;8.90;4.38;;;15.20;65.30;;;;;;5055534;28;20033;-75
2022/10/12 01:47:06;;;;;;;7.95;4.90;;;15.20;65.30;;;;;;5053962;28;20037;-75
2022/10/12 01:49:34;;;;;;;8.40;4.07;;;15.20;65.40;;;;;;5060851;28;20020;-75
2022/10/12 01:52:06;;;;;;;5.05;3.80;;;15.20;65.50;;;;;;5089895;28;20059;-75
2022/10/12 01:54:42;;;;;;;11.30;5.13;;;15.20;65.50;;;;;;5074171;28;20462;-73
2022/10/12 01:57:28;;;;;;;7.00;4.32;;;15.20;65.70;;;;;;5072031;28;20024;-73
2022/10/12 02:00:10;;;;;;;8.63;3.92;;;15.20;65.80;;;;;;5073815;28;20024;-75
2022/10/12 02:03:02;;;;;;;7.15;4.07;;;15.20;65.80;;;;;;5073819;28;20024;-75
2022/10/12 02:05:36;;;;;;;7.47;4.40;;;15.20;65.70;;;;;;5073793;28;20028;-75
2022/10/12 02:08:21;;;;;;;11.73;4.55;;;15.20;66.00;;;;;;5072562;28;20024;-76
2022/10/12 02:10:53;;;;;;;;;;;15.20;66.10;;;;;;5074155;28;20032;-74
2022/10/12 02:13:23;;;;;;;9.02;3.78;;;15.20;65.60;;;;;;5072081;28;19913;-75
2022/10/12 02:15:50;;;;;;;6.60;3.85;;;15.20;65.70;;;;;;5073616;28;20021;-73
2022/10/12 02:18:19;;;;;;;10.38;4.50;;;15.20;65.70;;;;;;5073512;28;20113;-75
2022/10/12 02:20:51;;;;;;;20.25;5.22;;;15.20;65.90;;;;;;5073492;28;20024;-77
2022/10/12 02:23:18;;;;;;;18.73;5.43;;;15.20;66.00;;;;;;5073484;28;20363;-74
2022/10/12 02:25:45;;;;;;;15.18;4.43;;;15.20;66.00;;;;;;5070896;28;20127;-74
2022/10/12 02:28:15;;;;;;;11.75;4.95;;;15.10;66.00;;;;;;5070355;28;20028;-75
2022/10/12 02:30:52;;;;;;;7.57;4.38;;;15.20;66.10;;;;;;5073316;28;20524;-74
2022/10/12 02:33:33;;;;;;;7.38;4.70;;;15.10;66.00;;;;;;5071681;28;20033;-75
2022/10/12 02:36:04;;;;;;;12.07;4.78;;;15.10;66.10;;;;;;5053224;28;20381;-73
2022/10/12 02:39:06;;;;;;;11.13;4.80;;;15.10;66.10;;;;;;5053231;28;20021;-73
2022/10/12 02:41:46;;;;;;;13.95;5.10;;;15.10;66.40;;;;;;5052833;28;20029;-76
2022/10/12 02:44:16;;;;;;;8.80;4.60;;;15.10;66.40;;;;;;5064006;28;20021;-73
2022/10/12 02:46:44;;;;;;;9.43;4.60;;;15.10;66.30;;;;;;5072795;28;20041;-74
2022/10/12 02:49:12;;;;;;;11.30;4.00;;;15.10;66.30;;;;;;5073069;28;20024;-77
2022/10/12 02:51:40;;;;;;;7.20;4.63;;;15.10;66.30;;;;;;5072958;28;20486;-74
2022/10/12 02:54:06;;;;;;;9.75;4.97;;;15.10;66.40;;;;;;5072901;28;20028;-75
2022/10/12 02:56:32;;;;;;;8.35;5.28;;;15.10;66.40;;;;;;5074819;28;20052;-73
2022/10/12 02:58:57;;;;;;;16.30;5.88;;;15.10;66.40;;;;;;5072329;28;20029;-73
2022/10/12 03:01:23;;;;;;;8.82;4.30;;;15.10;66.40;;;;;;5072356;28;20553;-72
2022/10/12 03:03:49;;;;;;;6.65;4.63;;;15.00;66.30;;;;;;5076342;28;20021;-78
2022/10/12 03:06:15;;;;;;;7.93;4.50;;;15.00;66.30;;;;;;5076227;28;20028;-75
2022/10/12 03:08:40;;;;;;;6.60;4.40;;;15.00;66.30;;;;;;5075843;28;20523;-73
2022/10/12 03:11:10;;;;;;;10.27;4.88;;;15.00;66.30;;;;;;5072893;28;20067;-75
2022/10/12 03:13:36;;;;;;;13.75;4.53;;;15.00;66.40;;;;;;5072840;28;20066;-78
2022/10/12 03:16:03;;;;;;;6.82;4.30;;;14.90;66.40;;;;;;5072582;28;20028;-72
2022/10/12 03:18:29;;;;;;;7.10;4.22;;;14.90;66.40;;;;;;5067440;28;20377;-74
2022/10/12 03:20:55;;;;;;;8.18;4.25;;;14.90;66.40;;;;;;5072494;28;20024;-74
2022/10/12 03:23:21;;;;;;;11.05;5.97;;;14.90;66.40;;;;;;5087930;28;20454;-74
2022/10/12 03:25:46;;;;;;;13.02;5.00;;;14.90;66.70;;;;;;5052553;28;20021;-75
2022/10/12 03:28:12;;;;;;;9.02;5.15;;;14.90;66.70;;;;;;5052625;28;20119;-74
2022/10/12 03:30:38;;;;;;;6.63;5.00;;;14.90;66.80;;;;;;5052372;28;20021;-77
2022/10/12 03:33:03;;;;;;;7.45;4.22;;;14.80;66.70;;;;;;5056038;28;20104;-72
2022/10/12 03:35:29;;;;;;;9.25;4.65;;;14.90;66.80;;;;;;5058167;28;20032;-76
2022/10/12 03:37:55;;;;;;;10.07;4.45;;;14.90;66.80;;;;;;5057615;28;20040;-72
2022/10/12 03:40:21;;;;;;;10.48;4.88;;;14.90;66.90;;;;;;5056671;28;20033;-73
2022/10/12 03:42:47;;;;;;;7.32;4.90;;;14.90;67.00;;;;;;5055940;28;20029;-72
2022/10/12 03:45:13;;;;;;;7.38;4.40;;;14.90;67.00;;;;;;5067320;28;20032;-74
2022/10/12 03:47:38;;;;;;;6.80;4.85;;;14.90;67.10;;;;;;5072813;28;20029;-76
2022/10/12 03:50:05;;;;;;;10.10;5.22;;;14.90;67.10;;;;;;5072541;28;20024;-76
2022/10/12 03:52:30;;;;;;;7.75;5.00;;;14.90;67.30;;;;;;5063707;28;20032;-72
2022/10/12 03:54:56;;;;;;;7.57;5.35;;;14.90;67.40;;;;;;5070336;28;20024;-76
2022/10/12 03:57:22;;;;;;;8.82;4.93;;;14.90;67.50;;;;;;5072487;28;20500;-76
2022/10/12 03:59:48;;;;;;;13.13;5.32;;;15.00;67.70;;;;;;5072228;28;20029;-74
2022/10/12 04:02:14;;;;;;;8.40;5.90;;;15.00;67.60;;;;;;5072364;28;20025;-72
2022/10/12 04:04:40;;;;;;;7.40;5.30;;;15.00;67.60;;;;;;5072409;28;20385;-74
2022/10/12 04:07:06;;;;;;;12.27;5.00;;;15.10;67.70;;;;;;5072273;28;20025;-72
2022/10/12 04:09:32;;;;;;;18.42;6.40;;;15.10;67.70;;;;;;5073865;28;20100;-76
2022/10/12 04:11:58;;;;;;;8.48;5.43;;;15.20;67.70;;;;;;5076346;28;20051;-77
2022/10/12 04:14:23;;;;;;;10.77;5.43;;;15.20;67.60;;;;;;5076128;28;20115;-72
2022/10/12 04:16:51;;;;;;;14.30;5.78;;;15.30;67.50;;;;;;5076063;28;20029;-74
2022/10/12 04:19:17;;;;;;;9.18;5.20;;;15.30;67.30;;;;;;5076050;28;20029;-74
2022/10/12 04:21:43;;;;;;;6.30;5.05;;;15.40;67.20;;;;;;5056654;28;20036;-76
2022/10/12 04:24:08;;;;;;;13.77;5.15;;;15.40;67.20;;;;;;5071479;28;20033;-77
2022/10/12 04:26:34;;;;;;;7.40;5.20;;;15.40;67.10;;;;;;5067688;28;20059;-75
2022/10/12 04:29:00;;;;;;;9.80;5.07;;;15.50;67.10;;;;;;5075935;28;20092;-75
2022/10/12 04:31:26;;;;;;;12.88;5.20;;;15.50;67.00;;;;;;5075635;28;20025;-76
2022/10/12 04:33:55;;;;;;;10.30;4.53;;;15.50;66.90;;;;;;5075633;28;20024;-73
2022/10/12 04:36:22;;;;;;;10.80;4.97;;;15.60;66.90;;;;;;5074324;28;20115;-75
2022/10/12 04:38:48;;;;;;;7.97;4.93;;;15.60;66.80;;;;;;5068379;28;20482;-76
2022/10/12 04:41:14;;;;;;;13.50;6.10;;;15.60;66.70;;;;;;5060982;28;20462;-72
2022/10/12 04:43:40;;;;;;;9.85;5.85;;;15.60;66.70;;;;;;5075377;28;20109;-73
2022/10/12 04:46:05;;;;;;;10.32;5.55;;;15.70;66.70;;;;;;5073982;28;20045;-78
2022/10/12 04:48:31;;;;;;;10.95;5.47;;;15.70;66.60;;;;;;5075496;28;20020;-75
2022/10/12 04:50:57;;;;;;;10.77;5.40;;;15.70;66.50;;;;;;5075529;28;20138;-72
2022/10/12 04:53:23;;;;;;;14.07;5.20;;;15.70;66.50;;;;;;5073710;28;20587;-77
2022/10/12 04:55:48;;;;;;;13.48;4.72;;;15.80;66.50;;;;;;5069579;28;20024;-73
2022/10/12 04:58:14;;;;;;;11.38;5.82;;;15.80;67.30;;;;;;5075208;28;20089;-74
2022/10/12 05:00:41;;;;;;;12.80;5.47;;;15.80;66.50;;;;;;5074852;28;20060;-75
2022/10/12 05:03:07;;;;;;;11.35;6.30;;;15.80;66.50;;;;;;5075148;28;20025;-72
2022/10/12 05:05:34;;;;;;;9.68;5.78;;;15.80;66.50;;;;;;5073931;28;20023;-77
2022/10/12 05:08:02;;;;;;;10.63;5.90;;;15.80;66.40;;;;;;5074812;28;20355;-76
2022/10/12 05:10:27;;;;;;;13.27;6.13;;;15.80;66.40;;;;;;5074782;28;20017;-76
2022/10/12 05:12:53;;;;;;;13.57;6.38;;;15.90;66.40;;;;;;5074797;28;20032;-74
2022/10/12 05:15:19;;;;;;;15.57;6.13;;;15.90;66.40;;;;;;5090452;28;20085;-75
2022/10/12 05:17:45;;;;;;;15.23;6.60;;;15.90;66.30;;;;;;5074737;28;20027;-76
2022/10/12 05:20:11;;;;;;;9.95;6.35;;;15.90;66.20;;;;;;5074601;28;20056;-79
2022/10/12 05:22:37;;;;;;;12.25;6.38;;;15.90;66.20;;;;;;5074562;28;20482;-76
2022/10/12 05:25:03;;;;;;;18.60;5.88;;;15.90;66.10;;;;;;5074669;28;20100;-77
2022/10/12 05:27:29;;;;;;;11.10;5.30;;;15.90;66.10;;;;;;5074489;28;20035;-78
2022/10/12 05:29:55;;;;;;;9.52;6.28;;;15.90;66.10;;;;;;5072727;28;20029;-77
2022/10/12 05:32:21;;;;;;;12.48;5.78;;;15.90;66.10;;;;;;5074029;28;20029;-71
2022/10/12 05:34:47;;;;;;;11.55;5.63;;;15.90;66.10;;;;;;5074634;28;20028;-75
2022/10/12 05:37:13;;;;;;;13.90;6.78;;;16.00;66.20;;;;;;5074440;28;20359;-77
2022/10/12 05:39:38;;;;;;;11.30;5.85;;;15.90;66.10;;;;;;5074154;28;20107;-79
2022/10/12 05:42:05;;;;;;;9.65;6.25;;;16.00;66.20;;;;;;5075075;28;20032;-75
2022/10/12 05:44:31;;;;;;;16.67;6.00;;;16.00;66.20;;;;;;5072295;28;20039;-75
2022/10/12 05:46:56;;;;;;;13.52;6.40;;;16.00;66.20;;;;;;5054214;28;20550;-74
2022/10/12 05:49:22;;;;;;;12.27;5.43;;;16.00;67.00;;;;;;5054257;28;20028;-73
2022/10/12 05:51:48;;;;;;;12.77;6.75;;;16.00;66.20;;;;;;5069436;28;20029;-77
2022/10/12 05:54:14;;;;;;;11.73;5.82;;;16.00;66.30;;;;;;5074329;28;20024;-73
2022/10/12 05:56:40;;;;;;;18.48;5.88;;;16.00;66.20;;;;;;5074011;28;20016;-77
2022/10/12 05:59:06;;;;;;;13.38;5.85;;;16.10;66.20;;;;;;5074187;28;20020;-71
2022/10/12 06:01:32;;;;;;;13.73;6.90;;;16.10;66.10;;;;;;5074057;28;20028;-74
2022/10/12 06:03:58;;;;;;;16.77;6.90;;;16.10;66.10;;;;;;5073989;28;20021;-73
2022/10/12 06:06:24;;;;;;;20.13;6.70;;;16.10;66.10;;;;;;5056316;28;20021;-75
2022/10/12 06:08:50;;;;;;;18.77;6.53;;;16.10;66.00;;;;;;5072825;28;20044;-76
2022/10/12 06:11:16;;;;;;;15.57;6.03;;;16.10;66.00;;;;;;5073913;28;20017;-76
2022/10/12 06:13:41;;;;;;;16.85;7.00;;;16.10;65.80;;;;;;5073920;28;20032;-75
2022/10/12 06:16:07;;;;;;;8.40;6.10;;;16.00;65.70;;;;;;5073794;28;20021;-72
2022/10/12 06:18:33;;;;;;;25.63;6.70;;;16.00;65.70;;;;;;5073721;28;20029;-73
2022/10/12 06:20:59;;;;;;;9.82;6.68;;;16.00;65.70;;;;;;5073694;28;20028;-78
2022/10/12 06:23:24;;;;;;;12.57;5.82;;;15.90;65.70;;;;;;5073659;28;20090;-79
2022/10/12 06:25:51;;;;;;;15.10;6.03;;;15.90;65.70;;;;;;5073619;28;20099;-75
2022/10/12 06:28:21;;;;;;;13.10;6.03;;;15.90;65.80;;;;;;5073590;28;20025;-75
2022/10/12 06:30:55;;;;;;;21.00;7.13;;;15.80;65.80;;;;;;5060280;28;20029;-74
2022/10/12 06:33:21;;;;;;;22.30;7.63;;;15.70;66.10;;;;;;5053046;28;20029;-74
2022/10/12 06:35:47;;;;;;;21.40;6.93;;;15.70;66.40;;;;;;5060654;28;20048;-77
2022/10/12 06:38:13;;;;;;;23.25;7.32;;;15.70;66.60;;;;;;5073447;28;20023;-74
2022/10/12 06:40:38;;;;;;;11.75;6.15;;;15.70;66.80;;;;;;5073333;28;20474;-73
2022/10/12 06:43:04;;;;;;;18.33;7.15;;;15.70;66.90;;;;;;5073356;28;20051;-72
2022/10/12 06:45:30;;;;;;;14.48;6.28;;;15.70;67.10;;;;;;5073093;28;20115;-75
2022/10/12 06:47:56;;;;;;;11.00;6.95;;;15.70;67.30;;;;;;5073226;28;20470;-74
2022/10/12 06:50:23;;;;;;;13.82;6.28;;;15.80;67.50;;;;;;5071868;28;20553;-74
2022/10/12 06:52:49;;;;;;;9.70;6.13;;;15.80;67.50;;;;;;5071699;28;20397;-77
2022/10/12 06:55:14;;;;;;;11.85;6.70;;;15.90;67.50;;;;;;5073120;28;20024;-74
2022/10/12 06:57:40;;;;;;;10.52;6.65;;;16.00;67.60;;;;;;5063718;28;20474;-73
2022/10/12 07:00:07;;;;;;;12.80;6.80;;;16.00;67.50;;;;;;5061582;28;20605;-73
2022/10/12 07:02:34;;;;;;;11.55;6.78;;;16.10;67.40;;;;;;5054199;28;20029;-77
2022/10/12 07:05:06;;;;;;;15.18;6.85;;;16.20;67.30;;;;;;5070745;28;20012;-73
2022/10/12 07:07:33;;;;;;;12.32;6.22;;;16.30;67.30;;;;;;5062931;28;20029;-74
2022/10/12 07:09:59;;;;;;;15.07;7.47;;;16.40;67.20;;;;;;5083096;28;20081;-76
2022/10/12 07:12:25;;;;;;;12.70;6.95;;;16.40;66.80;;;;;;5070585;28;20025;-73
2022/10/12 07:14:51;;;;;;;12.55;6.28;;;16.50;66.60;;;;;;5053097;28;20021;-75
2022/10/12 07:17:17;;;;;;;14.13;6.65;;;16.60;66.50;;;;;;5053091;28;20033;-75
2022/10/12 07:19:43;;;;;;;9.80;6.80;;;16.70;66.20;;;;;;5061081;28;20482;-75
2022/10/12 07:22:08;;;;;;;10.93;6.43;;;16.70;66.00;;;;;;5072432;28;20032;-75
2022/10/12 07:24:37;;;;;;;16.27;6.40;;;16.80;65.90;;;;;;5072739;28;20063;-77
2022/10/12 07:27:08;;;;;;;16.27;6.93;;;16.80;65.70;;;;;;5068880;28;20103;-75
2022/10/12 07:29:35;;;;;;;18.38;6.53;;;16.90;65.70;;;;;;5072796;28;20433;-74
2022/10/12 07:32:01;;;;;;;22.75;7.78;;;17.00;65.70;;;;;;5072450;28;20021;-74
2022/10/12 07:34:28;;;;;;;17.77;9.00;;;17.00;65.60;;;;;;5071960;28;20028;-77
2022/10/12 07:36:55;;;;;;;15.85;8.43;;;17.20;65.20;;;;;;5071320;28;20024;-76
2022/10/12 07:39:21;;;;;;;13.60;8.30;;;17.20;64.80;;;;;;5071250;28;20028;-75
2022/10/12 07:41:48;;;;;;;18.45;7.88;;;17.30;64.70;;;;;;5072603;28;20036;-75
2022/10/12 07:44:14;;;;;;;12.00;7.30;;;17.40;64.60;;;;;;5070116;28;20052;-74
2022/10/12 07:46:40;;;;;;;18.73;9.40;;;17.50;64.50;;;;;;5057734;28;20510;-74
2022/10/12 07:49:06;;;;;;;17.95;9.13;;;17.50;64.00;;;;;;5067788;28;20028;-76
2022/10/12 07:51:32;;;;;;;17.52;8.80;;;17.60;64.00;;;;;;5058458;28;20032;-75
2022/10/12 07:53:59;;;;;;;16.15;8.70;;;17.70;63.80;;;;;;5056371;28;20044;-74
2022/10/12 07:56:25;;;;;;;14.48;8.73;;;17.80;63.80;;;;;;5058330;28;20169;-73
2022/10/12 07:58:53;;;;;;;14.05;9.38;;;17.90;64.40;;;;;;5091985;28;20477;-75
2022/10/12 08:01:21;;;;;;;18.42;9.82;;;18.10;63.30;;;;;;5071928;28;20035;-74
2022/10/12 08:03:47;;;;;;;14.80;9.27;;;18.20;62.70;;;;;;5059139;28;20029;-76
2022/10/12 08:06:16;;;;;;;17.08;9.88;;;18.30;62.60;;;;;;5061446;28;20183;-74
2022/10/12 08:08:42;;;;;;;18.63;9.95;;;18.50;61.80;;;;;;5066270;28;20017;-73
2022/10/12 08:11:09;;;;;;;23.75;10.75;;;18.60;61.60;;;;;;5076027;28;20078;-74
2022/10/12 08:13:35;;;;;;;25.25;11.35;;;18.70;60.90;;;;;;5074808;28;20029;-74
2022/10/12 08:16:02;;;;;;;14.05;9.90;;;18.80;60.60;;;;;;5076000;28;20033;-73
2022/10/12 08:18:28;;;;;;;19.60;10.00;;;19.00;60.30;;;;;;5062920;28;20025;-72
2022/10/12 08:20:53;;;;;;;17.08;9.23;;;19.10;60.00;;;;;;5075789;28;20104;-72
2022/10/12 08:23:19;;;;;;;29.52;9.82;;;19.20;59.50;;;;;;5075817;28;20550;-77
2022/10/12 08:25:52;;;;;;;17.25;9.68;;;19.30;59.30;;;;;;5074257;28;20016;-76
2022/10/12 08:28:19;;;;;;;18.83;10.43;;;19.40;58.90;;;;;;5079252;28;20016;-76
2022/10/12 08:30:45;;;;;;;16.58;10.20;;;19.50;58.80;;;;;;5079395;28;20024;-76
2022/10/12 08:33:12;;;;;;;25.55;11.30;;;19.60;58.40;;;;;;5073867;28;20044;-74
2022/10/12 08:35:41;;;;;;;21.80;11.38;;;19.60;57.80;;;;;;5075751;28;20013;-77
2022/10/12 08:38:10;;;;;;;22.75;10.85;;;19.70;57.70;;;;;;5075576;28;20025;-76
2022/10/12 08:41:00;;;;;;;20.27;11.25;;;19.70;57.50;;;;;;5074300;28;20073;-75
2022/10/12 08:43:50;;;;;;;18.08;10.35;;;19.80;57.20;;;;;;5075650;28;20074;-77
2022/10/12 08:46:20;;;;;;;15.90;9.80;;;19.90;57.40;;;;;;5071099;28;20131;-75
2022/10/12 08:48:54;;;;;;;22.67;10.18;;;19.90;57.00;;;;;;5072762;28;20482;-73
2022/10/12 08:51:25;;;;;;;21.15;11.10;;;19.90;56.50;;;;;;5075495;28;20500;-74
2022/10/12 08:53:53;;;;;;;21.77;10.77;;;19.90;56.10;;;;;;5075341;28;20092;-78
2022/10/12 08:56:20;;;;;;;17.95;9.32;;;19.90;56.30;;;;;;5074813;28;20032;-77
2022/10/12 08:58:51;;;;;;;18.15;8.85;;;19.90;56.50;;;;;;5075133;28;20028;-73
2022/10/12 09:01:37;;;;;;;16.80;10.60;;;19.90;56.60;;;;;;5071221;28;20036;-74
2022/10/12 09:04:22;;;;;;;22.90;10.20;;;19.90;56.20;;;;;;5067844;28;20434;-73
2022/10/12 09:07:04;;;;;;;15.23;10.00;;;20.00;56.30;;;;;;5086521;28;20028;-74
2022/10/12 09:09:57;;;;;;;13.70;9.13;;;20.00;56.10;;;;;;5057544;28;20033;-76
2022/10/12 09:12:36;;;;;;;18.50;9.50;;;20.10;55.80;;;;;;5072231;28;20036;-75
2022/10/12 09:15:17;;;;;;;18.85;9.13;;;20.20;55.60;;;;;;5090390;28;20016;-73
2022/10/12 09:17:54;;;;;;;12.70;8.70;;;20.20;55.30;;;;;;5054715;28;20048;-78
2022/10/12 09:20:26;;;;;;;18.15;8.60;;;20.30;55.10;;;;;;5061393;28;20029;-72
2022/10/12 09:22:59;;;;;;;13.60;8.10;;;20.40;55.10;;;;;;5074552;28;20020;-74
2022/10/12 09:25:27;;;;;;;14.90;8.05;;;20.40;54.80;;;;;;5074580;28;20020;-74
2022/10/12 09:27:56;;;;;;;13.43;7.57;;;20.50;54.60;;;;;;5073963;28;20386;-76
2022/10/12 09:30:22;;;;;;;10.82;7.53;;;20.60;54.70;;;;;;5074515;28;20538;-75
2022/10/12 09:33:28;;;;;;;11.93;6.78;;;20.70;54.50;;;;;;5074170;28;20052;-77
2022/10/12 09:35:55;;;;;;;13.82;7.57;;;20.80;54.90;;;;;;5032111;28;20026;-75
2022/10/12 09:38:20;;;;;;;15.02;7.70;;;20.90;54.00;;;;;;5031394;28;20124;-73
2022/10/12 09:40:46;;;;;;;12.88;6.97;;;21.00;53.40;;;;;;5019444;28;20044;-73
2022/10/12 09:43:14;;;;;;;11.07;7.38;;;21.00;53.20;;;;;;5032115;28;20045;-75
2022/10/12 09:45:40;;;;;;;14.63;6.82;;;21.10;53.00;;;;;;5031095;28;20041;-74
2022/10/12 09:48:12;;;;;;;13.75;7.35;;;21.20;53.20;;;;;;5032228;28;20032;-77
2022/10/12 09:50:49;;;;;;;9.18;6.13;;;21.20;52.60;;;;;;5032725;28;20068;-75
2022/10/12 09:53:32;;;;;;;19.42;7.75;;;21.30;52.70;;;;;;5037884;28;20048;-77
2022/10/12 09:56:06;;;;;;;13.50;6.63;;;21.30;52.40;;;;;;5040746;28;20025;-75
2022/10/12 09:58:49;;;;;;;10.20;7.15;;;21.30;51.80;;;;;;5032146;28;20021;-76
2022/10/12 10:01:18;;;;;;;11.10;7.47;;;21.40;52.00;;;;;;5031077;28;20021;-78
2022/10/12 10:03:50;;;;;;;19.20;8.15;;;21.50;51.60;;;;;;5035252;28;20041;-75
2022/10/12 10:06:23;;;;;;;17.23;8.25;;;21.50;51.10;;;;;;5031102;28;20022;-75
2022/10/12 10:08:48;;;;;;;12.45;8.15;;;21.50;50.60;;;;;;5034404;28;20021;-75
2022/10/12 10:11:19;;;;;;;17.08;8.35;;;21.40;50.50;;;;;;5068346;28;20024;-76
2022/10/12 10:13:51;;;;;;;25.15;9.13;;;21.40;51.10;;;;;;5073783;28;20052;-73
2022/10/12 10:16:18;;;;;;;13.25;7.28;;;21.40;50.80;;;;;;5071418;28;20074;-77
2022/10/12 10:18:59;;;;;;;20.15;8.45;;;21.30;51.10;;;;;;5054219;28;20068;-75
2022/10/12 10:21:30;;;;;;;19.35;8.02;;;21.30;51.00;;;;;;5072809;28;20386;-75
2022/10/12 10:24:01;;;;;;;13.18;8.00;;;21.30;51.00;;;;;;5056908;28;20032;-72
2022/10/12 10:26:31;;;;;;;23.15;8.18;;;21.10;50.80;;;;;;5073497;28;20021;-76
2022/10/12 10:29:33;;;;;;;20.45;7.45;;;21.10;50.80;;;;;;5055625;28;20395;-75
2022/10/12 10:32:23;;;;;;;15.23;7.25;;;21.00;51.20;;;;;;5031131;28;20087;-75
2022/10/12 10:35:12;;;;;;;17.55;6.80;;;20.90;51.10;;;;;;5045300;28;20171;-75
2022/10/12 10:37:48;;;;;;;15.70;6.80;;;20.90;50.80;;;;;;5051072;28;20032;-77
2022/10/12 10:40:26;;;;;;;16.10;7.13;;;20.80;50.50;;;;;;5052758;28;20044;-76
2022/10/12 10:43:00;;;;;;;11.40;6.88;;;20.70;50.60;;;;;;5032241;28;20135;-76
2022/10/12 10:45:53;;;;;;;18.58;8.05;;;20.70;50.60;;;;;;5051173;28;20044;-76
2022/10/12 10:48:23;;;;;;;14.23;6.90;;;20.70;50.90;;;;;;5048953;28;20045;-72
2022/10/12 10:50:59;;;;;;;10.82;6.60;;;20.70;50.90;;;;;;5052527;28;20049;-79
2022/10/12 10:53:29;;;;;;;11.40;7.15;;;20.70;50.80;;;;;;5051076;28;20164;-74
2022/10/12 10:56:00;;;;;;;14.63;7.30;;;20.70;50.50;;;;;;5050681;28;20486;-72
2022/10/12 10:58:55;;;;;;;13.43;7.10;;;20.70;50.50;;;;;;5051159;28;20037;-77
2022/10/12 11:01:23;;;;;;;;;;;20.70;50.50;;;;;;5050873;28;20041;-75
2022/10/12 11:03:59;;;;;;;12.48;7.20;;;20.70;51.70;;;;;;5050851;28;19904;-75
2022/10/12 11:06:38;;;;;;;12.20;6.90;;;20.80;50.80;;;;;;5052189;28;20032;-77
2022/10/12 11:09:19;;;;;;;17.10;7.88;;;20.70;50.90;;;;;;5070331;28;20063;-74
2022/10/12 11:11:52;;;;;;;10.82;6.50;;;20.80;50.80;;;;;;5072957;28;20021;-72
2022/10/12 11:14:22;;;;;;;12.35;7.00;;;20.80;50.80;;;;;;5074498;28;20462;-76
2022/10/12 11:17:22;;;;;;;11.32;7.40;;;20.80;50.80;;;;;;5055372;28;20036;-73
2022/10/12 11:20:04;;;;;;;19.33;6.78;;;20.80;50.70;;;;;;5051345;28;20041;-71
2022/10/12 11:22:47;;;;;;;13.32;6.97;;;20.90;50.70;;;;;;5069741;28;20482;-71
2022/10/12 11:25:34;;;;;;;11.60;5.80;;;20.90;50.50;;;;;;5058481;28;20035;-74
2022/10/12 11:28:00;;;;;;;13.20;7.70;;;20.90;50.50;;;;;;5054883;28;20098;-74
2022/10/12 11:30:35;;;;;;;12.88;7.20;;;21.00;50.10;;;;;;5052909;28;20033;-75
2022/10/12 11:33:22;;;;;;;14.18;7.38;;;21.00;50.30;;;;;;5060081;28;20074;-74
2022/10/12 11:35:48;;;;;;;10.23;5.47;;;21.00;50.60;;;;;;5052804;28;20072;-76
2022/10/12 11:38:30;;;;;;;12.55;7.82;;;21.00;50.70;;;;;;5053007;28;20095;-73
2022/10/12 11:41:07;;;;;;;13.75;7.40;;;21.10;50.10;;;;;;5064728;28;20094;-79
2022/10/12 11:44:00;;;;;;;9.75;6.88;;;21.10;50.00;;;;;;5058787;28;20025;-74
2022/10/12 11:46:41;;;;;;;15.18;7.25;;;21.10;50.10;;;;;;5063345;28;20056;-73
2022/10/12 11:49:15;;;;;;;15.23;7.15;;;21.10;50.00;;;;;;5052550;28;20056;-72
2022/10/12 11:51:47;;;;;;;12.45;6.63;;;21.10;49.70;;;;;;5053853;28;20116;-77
2022/10/12 11:54:23;;;;;;;17.38;6.43;;;21.10;49.40;;;;;;5052558;28;20478;-78
2022/10/12 11:56:53;;;;;;;15.45;6.95;;;21.10;49.80;;;;;;5063979;28;20038;-74
2022/10/12 11:59:28;;;;;;;11.75;6.88;;;21.20;49.90;;;;;;5072449;28;20386;-74
2022/10/12 12:01:59;;;;;;;12.25;6.07;;;21.20;49.40;;;;;;5071496;28;20454;-74
2022/10/12 12:04:34;;;;;;;13.73;6.72;;;21.20;49.50;;;;;;5058528;28;20371;-74
2022/10/12 12:07:22;;;;;;;16.27;7.13;;;21.30;49.30;;;;;;5068021;28;20025;-72
2022/10/12 12:09:48;;;;;;;15.52;6.50;;;21.30;49.20;;;;;;5052181;28;20021;-75
2022/10/12 12:12:23;;;;;;;17.52;6.97;;;21.30;49.50;;;;;;5062886;28;20024;-73
2022/10/12 12:14:52;;;;;;;12.27;6.25;;;21.30;49.20;;;;;;5069558;28;20086;-74
2022/10/12 12:17:18;;;;;;;10.20;6.13;;;21.30;49.50;;;;;;5086608;28;20078;-77
2022/10/12 12:19:51;;;;;;;14.13;5.93;;;21.30;49.30;;;;;;5087214;28;20417;-74
2022/10/12 12:22:27;;;;;;;10.80;5.97;;;21.40;49.00;;;;;;5072901;28;20481;-78
2022/10/12 12:25:16;;;;;;;13.27;5.68;;;21.40;49.10;;;;;;5078803;28;20478;-77
2022/10/12 12:27:57;;;;;;;15.90;6.05;;;21.40;48.70;;;;;;5067067;28;20029;-72
2022/10/12 12:30:38;;;;;;;17.67;5.88;;;21.40;48.70;;;;;;5073330;28;20024;-76
2022/10/12 12:33:26;;;;;;;12.23;5.18;;;21.40;48.50;;;;;;5069475;28;20086;-75
2022/10/12 12:36:02;;;;;;;13.93;5.90;;;21.50;48.60;;;;;;5055381;28;20041;-74
2022/10/12 12:38:34;;;;;;;14.68;6.05;;;21.50;48.10;;;;;;5058143;28;20433;-76
2022/10/12 12:41:10;;;;;;;11.95;5.50;;;21.50;47.50;;;;;;5068774;28;20082;-75
2022/10/12 12:43:43;;;;;;;11.00;5.68;;;21.60;48.00;;;;;;5074975;28;20025;-76
2022/10/12 12:46:12;;;;;;;16.83;5.70;;;21.60;47.30;;;;;;5070530;28;20040;-71
2022/10/12 12:48:40;;;;;;;20.02;6.80;;;21.60;47.50;;;;;;5075997;28;20021;-77
2022/10/12 12:51:08;;;;;;;18.25;6.88;;;21.60;47.10;;;;;;5088466;28;20414;-74
2022/10/12 12:53:43;;;;;;;12.10;5.32;;;21.70;47.40;;;;;;5073921;28;20040;-75
2022/10/12 12:56:18;;;;;;;20.48;5.70;;;21.70;47.30;;;;;;5085534;28;20033;-76
2022/10/12 12:59:01;;;;;;;16.40;5.22;;;21.70;46.80;;;;;;5075142;28;20031;-74